Branch, Michigan
Current Conditions -  °F | °C
As of 8:55 AM on Thursday 30 Oct 2014 (Local Time) from KLDM Reporting Station
Overcast Overcast  
Wind Chill: 43°   Ceiling: 3800
Heat Index: 46°   Visibility: 10mi
Dew Point: 38°   Wind: 6mph
Humidity: 74%   Direction: 250°WSW
Pressure: 30.1"   Gusts: NA
Location:  43.92°N, 86.07°W
Report Text: KLDM 301255Z AUTO 25005KT 10SM SCT031 OVC038 08/03 A3010 RMK AO2 T00780034
Loading
Personal Weather Stations






























Interactive Weather Map
Tropical Storm Tracking
New forecast layout! Learn more

10-Day Weather Forecast

Advertisements
Track Severe Weather on mobile